Beiseker, Canada
Current Conditions -  °F | °C
As of 2:00 AM on Sunday 23 Nov 2014 (Local Time) from CYYC Reporting Station
Broken Clouds Broken Clouds  
Wind Chill: 27°   Ceiling: 1400
Heat Index: 27°   Visibility: 15mi
Dew Point: 23°   Wind: 0mph
Humidity: 86%   Direction: NA
Pressure: 29.69"   Gusts: NA
Location:  51.38°N, 113.53°W
Report Text: CYYC 230900Z 00000KT 15SM BKN014 M03/M05 A2969 RMK SC7 SLP097
Loading
Personal Weather Stations






























Interactive Weather Map New forecast layout! Learn more

10-Day Weather Forecast

Advertisements
Track Severe Weather on mobile